Time;durP1;ratioP1;P1;durP2;ratioP2;P2;SDS_P1;SDS_P2;PMS_P1;PMS_P2;Temp;Humidity;BMP_temperature;BMP_pressure;BME280_temperature;BME280_humidity;BME280_pressure;Samples;Min_cycle;Max_cycle;Signal;HPM_P1;HPM_P2
2023/10/02 00:00:43;;;;;;;5.37;4.70;;;21.60;99.90;;;;;;5065427;28;20548;-65
2023/10/02 00:03:10;;;;;;;6.57;4.93;;;21.70;99.90;;;;;;5063854;28;20493;-65
2023/10/02 00:05:50;;;;;;;7.33;5.30;;;21.70;99.90;;;;;;5068394;28;20911;-65
2023/10/02 00:08:31;;;;;;;6.33;4.83;;;21.70;99.90;;;;;;5069042;28;20476;-65
2023/10/02 00:11:05;;;;;;;6.80;5.37;;;21.60;99.90;;;;;;5068478;28;20549;-64
2023/10/02 00:13:32;;;;;;;8.40;4.90;;;21.60;99.90;;;;;;5066464;28;21092;-65
2023/10/02 00:16:00;;;;;;;8.63;5.83;;;21.70;99.90;;;;;;5069323;28;21099;-64
2023/10/02 00:18:28;;;;;;;5.37;4.70;;;21.70;99.90;;;;;;5064938;28;20488;-65
2023/10/02 00:21:17;;;;;;;7.17;5.47;;;21.60;99.90;;;;;;5068974;28;20487;-64
2023/10/02 00:23:59;;;;;;;6.17;4.47;;;21.60;99.90;;;;;;5069660;28;20469;-65
2023/10/02 00:26:26;;;;;;;6.70;5.40;;;21.60;99.90;;;;;;5068861;28;21109;-65
2023/10/02 00:28:52;;;;;;;5.37;4.53;;;21.60;99.90;;;;;;5065202;28;21080;-64
2023/10/02 00:31:35;;;;;;;7.30;5.23;;;21.60;99.90;;;;;;5070605;28;20569;-65
2023/10/02 00:34:02;;;;;;;5.93;4.77;;;21.60;99.90;;;;;;5067576;28;20459;-64
2023/10/02 00:36:30;;;;;;;6.80;5.40;;;21.60;99.90;;;;;;5068868;28;20467;-65
2023/10/02 00:39:24;;;;;;;6.90;4.63;;;21.60;99.90;;;;;;5068317;28;20474;-65
2023/10/02 00:42:10;;;;;;;5.03;4.47;;;21.60;99.90;;;;;;5069406;28;21001;-65
2023/10/02 00:47:35;;;;;;;6.97;5.67;;;21.60;99.90;;;;;;5068540;28;20843;-65
2023/10/02 00:50:10;;;;;;;6.03;4.40;;;21.50;99.90;;;;;;5066359;28;22670;-65
2023/10/02 00:52:40;;;;;;;6.13;4.37;;;21.60;99.90;;;;;;5069612;28;20546;-65
2023/10/02 00:55:08;;;;;;;6.70;5.90;;;21.50;99.90;;;;;;5066475;28;20775;-65
2023/10/02 00:57:38;;;;;;;6.27;5.20;;;21.60;99.90;;;;;;5070550;28;20468;-65
2023/10/02 01:00:16;;;;;;;7.17;4.97;;;21.60;99.90;;;;;;5067892;28;20831;-64
2023/10/02 01:02:45;;;;;;;5.67;4.33;;;21.60;99.90;;;;;;5067247;28;20459;-63
2023/10/02 01:05:15;;;;;;;6.67;4.43;;;21.60;99.90;;;;;;5066183;28;20455;-64
2023/10/02 01:07:42;;;;;;;5.13;4.63;;;21.60;99.90;;;;;;5069277;28;20934;-63
2023/10/02 01:10:17;;;;;;;4.73;4.23;;;21.60;99.90;;;;;;5068151;28;21052;-64
2023/10/02 01:12:49;;;;;;;4.50;4.07;;;21.60;99.90;;;;;;5070059;28;20459;-64
2023/10/02 01:15:19;;;;;;;6.90;4.83;;;21.60;99.90;;;;;;5068186;28;20464;-64
2023/10/02 01:17:49;;;;;;;7.83;5.10;;;21.60;99.90;;;;;;5058628;28;21103;-63
2023/10/02 01:20:32;;;;;;;5.63;4.60;;;21.50;99.90;;;;;;5070614;28;20795;-64
2023/10/02 01:23:11;;;;;;;5.43;4.17;;;21.50;99.90;;;;;;5070913;28;20462;-64
2023/10/02 01:25:42;;;;;;;7.10;4.90;;;21.50;99.90;;;;;;5069449;28;20455;-63
2023/10/02 01:28:13;;;;;;;5.20;4.57;;;21.50;99.90;;;;;;5065505;28;20470;-64
2023/10/02 01:30:42;;;;;;;6.13;5.00;;;21.50;99.90;;;;;;5066248;28;20455;-64
2023/10/02 01:33:14;;;;;;;6.70;4.63;;;21.50;99.90;;;;;;5065390;28;20919;-64
2023/10/02 01:35:48;;;;;;;7.57;5.00;;;21.50;99.90;;;;;;5063129;28;21259;-64
2023/10/02 01:38:18;;;;;;;6.80;5.60;;;21.50;99.90;;;;;;5067161;28;22212;-64
2023/10/02 01:40:49;;;;;;;5.80;4.43;;;21.70;99.90;;;;;;5068974;28;20594;-64
2023/10/02 01:43:17;;;;;;;5.60;4.40;;;21.60;99.90;;;;;;5068884;28;20548;-64
2023/10/02 01:45:45;;;;;;;6.50;4.90;;;21.50;99.90;;;;;;5066924;28;21041;-63
2023/10/02 01:48:14;;;;;;;5.57;4.27;;;21.50;99.90;;;;;;5065594;28;20477;-63
2023/10/02 01:50:43;;;;;;;5.67;4.73;;;21.50;99.90;;;;;;5064674;28;20468;-64
2023/10/02 01:53:29;;;;;;;5.80;4.87;;;21.50;99.90;;;;;;5066090;28;20929;-64
2023/10/02 01:56:10;;;;;;;4.70;3.97;;;21.40;99.90;;;;;;5064482;28;20455;-64
2023/10/02 01:58:39;;;;;;;4.60;3.87;;;21.60;99.90;;;;;;5069769;28;20451;-64
2023/10/02 02:01:06;;;;;;;6.50;4.30;;;21.50;99.90;;;;;;5066154;28;21353;-64
2023/10/02 02:03:33;;;;;;;6.77;5.27;;;21.60;99.90;;;;;;5066866;28;20463;-63
2023/10/02 02:06:08;;;;;;;6.97;5.00;;;21.50;99.90;;;;;;5067166;28;20501;-63
2023/10/02 02:08:35;;;;;;;5.67;4.93;;;21.50;99.90;;;;;;5068758;28;20451;-64
2023/10/02 02:11:16;;;;;;;4.93;4.37;;;21.50;99.90;;;;;;5066675;28;20489;-64
2023/10/02 02:13:45;;;;;;;5.13;3.70;;;21.50;99.90;;;;;;5066931;28;20471;-64
2023/10/02 02:16:15;;;;;;;4.43;3.97;;;21.50;99.90;;;;;;5065808;28;20471;-64
2023/10/02 02:18:42;;;;;;;4.77;4.17;;;21.50;99.90;;;;;;5066389;28;20475;-64
2023/10/02 02:21:13;;;;;;;4.60;3.83;;;21.60;99.90;;;;;;5068238;28;21064;-64
2023/10/02 02:23:40;;;;;;;5.77;4.20;;;21.50;99.90;;;;;;5067114;28;20460;-64
2023/10/02 02:26:08;;;;;;;5.73;4.53;;;21.60;99.90;;;;;;5064131;28;22112;-63
2023/10/02 02:28:43;;;;;;;5.13;4.03;;;21.60;99.90;;;;;;5066783;28;22041;-63
2023/10/02 02:31:29;;;;;;;6.67;4.60;;;21.40;99.90;;;;;;5065300;28;20453;-64
2023/10/02 02:33:57;;;;;;;5.30;4.37;;;21.60;99.90;;;;;;5063990;28;20465;-64
2023/10/02 02:36:25;;;;;;;4.43;4.00;;;21.50;99.90;;;;;;5065455;28;20456;-64
2023/10/02 02:39:05;;;;;;;4.93;3.80;;;21.40;99.90;;;;;;5065072;28;20452;-64
2023/10/02 02:41:36;;;;;;;5.50;3.87;;;21.40;99.90;;;;;;5067357;28;20447;-64
2023/10/02 02:44:04;;;;;;;5.00;3.80;;;21.50;99.90;;;;;;5066576;28;20482;-64
2023/10/02 02:46:32;;;;;;;4.10;3.70;;;21.50;99.90;;;;;;5063108;28;21227;-64
2023/10/02 02:49:00;;;;;;;7.53;4.80;;;21.40;99.90;;;;;;5065426;28;20459;-64
2023/10/02 02:51:27;;;;;;;5.00;3.97;;;21.40;99.90;;;;;;5066351;28;20456;-64
2023/10/02 02:53:53;;;;;;;5.53;4.10;;;21.50;99.90;;;;;;5066001;28;20456;-64
2023/10/02 02:56:22;;;;;;;4.90;4.00;;;21.50;99.90;;;;;;5065693;28;20462;-64
2023/10/02 02:58:52;;;;;;;6.03;4.40;;;21.50;99.90;;;;;;5068337;28;20452;-64
2023/10/02 03:01:24;;;;;;;5.75;4.20;;;21.50;99.90;;;;;;5064763;28;20481;-63
2023/10/02 03:03:51;;;;;;;5.20;4.43;;;21.50;99.90;;;;;;5058456;28;20235;-64
2023/10/02 03:06:22;;;;;;;5.33;4.47;;;21.50;99.90;;;;;;5065791;28;20455;-64
2023/10/02 03:08:51;;;;;;;4.87;3.70;;;21.50;99.90;;;;;;5067139;28;20451;-65
2023/10/02 03:11:19;;;;;;;5.53;3.50;;;21.50;99.90;;;;;;5065681;28;20466;-64
2023/10/02 03:13:47;;;;;;;4.47;3.77;;;21.40;99.90;;;;;;5064632;28;20504;-63
2023/10/02 03:16:17;;;;;;;6.00;4.70;;;21.40;99.90;;;;;;5061821;28;20467;-64
2023/10/02 03:18:45;;;;;;;3.87;3.37;;;21.40;99.90;;;;;;5066096;28;20459;-64
2023/10/02 03:21:23;;;;;;;4.30;3.83;;;21.50;99.90;;;;;;5066300;28;20974;-64
2023/10/02 03:23:51;;;;;;;5.95;4.03;;;21.50;99.90;;;;;;5068551;28;20692;-64
2023/10/02 03:26:37;;;;;;;5.60;4.00;;;21.40;99.90;;;;;;5066464;28;20193;-64
2023/10/02 03:29:05;;;;;;;5.10;3.63;;;21.50;99.90;;;;;;5061584;28;20480;-64
2023/10/02 03:31:43;;;;;;;7.17;4.73;;;21.50;99.90;;;;;;5065647;28;20456;-64
2023/10/02 03:37:08;;;;;;;5.03;3.97;;;21.40;99.90;;;;;;5042519;28;20518;-64
2023/10/02 03:39:59;;;;;;;5.10;3.83;;;21.40;99.90;;;;;;5067609;28;20459;-64
2023/10/02 03:42:30;;;;;;;5.07;3.60;;;21.50;99.90;;;;;;5068193;28;20463;-64
2023/10/02 03:44:58;;;;;;;4.90;4.00;;;21.50;99.90;;;;;;5070684;28;21698;-64
2023/10/02 03:47:30;;;;;;;4.20;2.90;;;21.40;99.90;;;;;;5063495;28;20990;-64
2023/10/02 03:50:01;;;;;;;4.23;3.63;;;21.40;99.90;;;;;;5070215;28;21182;-63
2023/10/02 03:52:30;;;;;;;5.80;3.90;;;21.40;99.90;;;;;;5069937;28;20526;-63
2023/10/02 03:54:58;;;;;;;4.00;3.57;;;21.50;99.90;;;;;;5069662;28;20455;-64
2023/10/02 03:57:49;;;;;;;4.87;3.90;;;21.40;99.90;;;;;;5069595;28;20909;-64
2023/10/02 04:00:18;;;;;;;4.03;3.63;;;21.40;99.90;;;;;;5067659;28;20989;-63
2023/10/02 04:02:47;;;;;;;4.63;3.80;;;21.40;99.90;;;;;;5070289;28;20463;-64
2023/10/02 04:05:30;;;;;;;4.53;3.83;;;21.50;99.90;;;;;;5069692;28;20464;-65
2023/10/02 04:08:12;;;;;;;5.20;4.40;;;21.40;99.90;;;;;;5066996;28;20471;-64
2023/10/02 04:11:02;;;;;;;4.07;3.40;;;21.40;99.90;;;;;;5070097;28;20452;-64
2023/10/02 04:13:33;;;;;;;4.43;3.53;;;21.40;99.90;;;;;;5070119;28;20463;-64
2023/10/02 04:18:58;;;;;;;4.33;3.93;;;21.40;99.90;;;;;;5064829;28;20450;-64
2023/10/02 04:21:25;;;;;;;5.13;4.07;;;21.60;99.90;;;;;;5068809;28;20494;-65
2023/10/02 04:23:53;;;;;;;3.97;3.50;;;21.40;99.90;;;;;;5068623;28;20447;-64
2023/10/02 04:26:21;;;;;;;5.60;4.10;;;21.50;99.90;;;;;;5067895;28;20554;-64
2023/10/02 04:28:55;;;;;;;4.57;3.50;;;21.40;99.90;;;;;;5069767;28;20990;-64
2023/10/02 04:31:23;;;;;;;5.13;4.00;;;21.40;99.90;;;;;;5067913;28;20558;-64
2023/10/02 04:34:06;;;;;;;6.00;4.30;;;21.40;99.90;;;;;;5066382;28;20462;-64
2023/10/02 04:36:35;;;;;;;4.33;3.43;;;21.40;99.90;;;;;;5067293;28;20560;-64
2023/10/02 04:39:04;;;;;;;3.73;3.23;;;21.40;99.90;;;;;;5067952;28;20548;-64
2023/10/02 04:41:42;;;;;;;4.53;3.70;;;21.40;99.90;;;;;;5068907;28;20443;-64
2023/10/02 04:44:18;;;;;;;4.80;3.50;;;21.40;99.90;;;;;;5068667;28;20458;-64
2023/10/02 04:46:45;;;;;;;6.00;3.77;;;21.40;99.90;;;;;;5065439;28;20452;-64
2023/10/02 04:49:12;;;;;;;4.30;3.50;;;21.50;99.90;;;;;;5066296;28;20474;-64
2023/10/02 04:51:46;;;;;;;5.60;3.60;;;21.40;99.90;;;;;;5068783;28;20467;-65
2023/10/02 04:54:15;;;;;;;4.40;4.00;;;21.30;99.90;;;;;;5068857;28;20463;-64
2023/10/02 04:56:46;;;;;;;4.43;3.87;;;21.40;99.90;;;;;;5068400;28;20462;-64
2023/10/02 04:59:13;;;;;;;3.95;3.50;;;21.40;99.90;;;;;;5069254;28;20493;-64
2023/10/02 05:01:41;;;;;;;3.73;3.33;;;21.30;99.90;;;;;;5067921;28;20671;-64
2023/10/02 05:04:18;;;;;;;4.07;3.30;;;21.30;99.90;;;;;;5067988;28;20463;-65
2023/10/02 05:06:52;;;;;;;5.20;3.73;;;21.40;99.90;;;;;;5066815;28;20470;-64
2023/10/02 05:09:38;;;;;;;3.93;3.17;;;21.30;99.90;;;;;;5070305;28;20475;-64
2023/10/02 05:12:06;;;;;;;4.17;3.57;;;21.40;99.90;;;;;;5069165;28;20455;-64
2023/10/02 05:14:47;;;;;;;4.67;3.63;;;21.30;99.90;;;;;;5066455;28;20482;-64
2023/10/02 05:17:38;;;;;;;3.90;2.90;;;21.40;99.90;;;;;;5066401;28;20832;-63
2023/10/02 05:20:07;;;;;;;4.00;3.10;;;21.40;99.90;;;;;;5067638;28;21042;-64
2023/10/02 05:22:36;;;;;;;4.83;3.53;;;21.40;99.90;;;;;;5069303;28;20914;-64
2023/10/02 05:25:05;;;;;;;4.83;3.53;;;21.40;99.90;;;;;;5069040;28;20597;-64
2023/10/02 05:27:33;;;;;;;3.83;3.30;;;21.20;99.90;;;;;;5069094;28;20491;-64
2023/10/02 05:30:00;;;;;;;4.73;3.70;;;21.40;99.90;;;;;;5067805;28;20467;-64
2023/10/02 05:32:31;;;;;;;3.70;3.27;;;21.40;99.90;;;;;;5065919;28;20457;-64
2023/10/02 05:35:16;;;;;;;4.43;3.63;;;21.40;99.90;;;;;;5068509;28;20513;-64
2023/10/02 05:37:47;;;;;;;3.90;3.00;;;21.30;99.90;;;;;;5065054;28;21682;-64
2023/10/02 05:40:37;;;;;;;4.00;3.20;;;21.40;99.90;;;;;;5068745;28;20457;-64
2023/10/02 05:43:09;;;;;;;3.93;2.80;;;21.30;99.90;;;;;;5069530;28;20462;-64
2023/10/02 05:45:39;;;;;;;4.25;3.28;;;21.30;99.90;;;;;;5068724;28;20439;-64
2023/10/02 05:48:08;;;;;;;3.90;3.40;;;21.40;99.90;;;;;;5061870;28;20318;-64
2023/10/02 05:50:38;;;;;;;4.70;3.30;;;21.30;99.90;;;;;;5068886;28;20491;-64
2023/10/02 05:53:06;;;;;;;3.17;2.80;;;21.40;99.90;;;;;;5065967;28;20332;-63
2023/10/02 05:55:56;;;;;;;4.97;3.87;;;21.40;99.90;;;;;;5064833;28;21018;-62
2023/10/02 05:58:27;;;;;;;3.53;3.07;;;21.40;99.90;;;;;;5068714;28;20554;-62
2023/10/02 06:00:57;;;;;;;3.88;3.15;;;21.40;99.90;;;;;;5065145;28;20886;-62
2023/10/02 06:03:23;;;;;;;4.33;3.50;;;21.30;99.90;;;;;;5064924;28;20194;-62
2023/10/02 06:08:33;;;;;;;3.60;3.30;;;21.40;99.90;;;;;;5064566;28;20906;-62
2023/10/02 06:11:25;;;;;;;3.60;2.80;;;21.30;99.90;;;;;;5065748;28;21174;-62
2023/10/02 06:13:54;;;;;;;4.10;3.40;;;21.30;99.90;;;;;;5069442;28;20571;-62
2023/10/02 06:16:24;;;;;;;4.00;3.10;;;21.30;99.90;;;;;;5064183;28;20598;-62
2023/10/02 06:19:00;;;;;;;3.83;3.17;;;21.30;99.90;;;;;;5064188;28;20479;-62
2023/10/02 06:21:31;;;;;;;4.67;3.73;;;21.40;99.90;;;;;;5068942;28;20453;-62
2023/10/02 06:23:59;;;;;;;3.40;2.67;;;21.40;99.90;;;;;;5065864;28;20545;-62
2023/10/02 06:26:30;;;;;;;4.33;3.80;;;21.30;99.90;;;;;;5072066;28;20542;-61
2023/10/02 06:29:22;;;;;;;4.07;3.63;;;21.30;99.90;;;;;;5069973;28;20992;-61
2023/10/02 06:31:51;;;;;;;3.97;3.00;;;21.30;99.90;;;;;;5073263;28;20462;-62
2023/10/02 06:34:18;;;;;;;4.93;3.67;;;21.30;99.90;;;;;;5069417;28;20939;-62
2023/10/02 06:36:48;;;;;;;4.00;3.30;;;21.30;99.90;;;;;;5073218;28;21007;-62
2023/10/02 06:39:17;;;;;;;4.17;3.00;;;21.40;99.90;;;;;;5072684;28;20459;-62
2023/10/02 06:41:46;;;;;;;3.20;2.80;;;21.40;99.90;;;;;;5069913;28;20492;-62
2023/10/02 06:44:20;;;;;;;3.80;2.70;;;21.30;99.90;;;;;;5071923;28;21022;-63
2023/10/02 06:46:55;;;;;;;4.20;3.20;;;21.30;99.90;;;;;;5070397;28;21075;-61
2023/10/02 06:49:23;;;;;;;4.60;3.13;;;21.30;99.90;;;;;;5071986;28;20475;-62
2023/10/02 06:51:50;;;;;;;3.03;2.77;;;21.30;99.90;;;;;;5071603;28;20785;-62
2023/10/02 06:54:21;;;;;;;4.72;2.95;;;;;;;;;;5067446;28;20452;-63
2023/10/02 06:56:48;;;;;;;3.97;2.95;;;21.30;99.90;;;;;;5069826;28;20200;-62
2023/10/02 06:59:21;;;;;;;3.90;3.33;;;;;;;;;;5066552;28;20214;-62
2023/10/02 07:02:04;;;;;;;4.30;3.00;;;;;;;;;;5067849;28;20455;-62
2023/10/02 07:04:32;;;;;;;4.50;3.57;;;;;;;;;;5071628;28;20470;-62
2023/10/02 07:07:03;;;;;;;6.00;3.80;;;21.20;99.90;;;;;;5072868;28;20800;-62
2023/10/02 07:09:37;;;;;;;5.60;4.00;;;21.30;99.90;;;;;;5068956;28;20677;-62
2023/10/02 07:12:13;;;;;;;4.25;3.85;;;21.40;99.90;;;;;;5073736;28;20455;-62
2023/10/02 07:14:41;;;;;;;4.80;3.57;;;21.30;99.90;;;;;;5072059;28;20634;-62
2023/10/02 07:17:17;;;;;;;4.07;3.60;;;21.40;99.90;;;;;;5070789;28;20454;-62
2023/10/02 07:19:48;;;;;;;4.60;3.87;;;21.40;99.90;;;;;;5075207;28;20660;-62
2023/10/02 07:22:17;;;;;;;5.67;4.07;;;21.40;99.90;;;;;;5075178;28;20461;-62
2023/10/02 07:24:47;;;;;;;4.40;3.43;;;21.40;99.90;;;;;;5074097;28;20456;-61
2023/10/02 07:27:25;;;;;;;4.90;4.00;;;21.30;99.90;;;;;;5071856;28;20611;-62
2023/10/02 07:29:54;;;;;;;5.93;3.77;;;21.40;99.90;;;;;;5064528;28;20223;-62
2023/10/02 07:32:21;;;;;;;6.30;4.18;;;21.40;99.90;;;;;;5077501;28;20464;-63
2023/10/02 07:34:50;;;;;;;5.95;4.60;;;21.40;99.90;;;;;;5077296;28;20206;-61
2023/10/02 07:37:21;;;;;;;6.80;4.00;;;21.40;99.90;;;;;;5072525;28;20221;-61
2023/10/02 07:39:56;;;;;;;6.13;4.37;;;21.40;99.90;;;;;;5077186;28;20541;-62
2023/10/02 07:42:28;;;;;;;5.43;4.17;;;21.50;99.90;;;;;;5073454;28;20459;-63
2023/10/02 07:44:56;;;;;;;4.40;3.53;;;21.40;99.90;;;;;;5072661;28;20461;-64
2023/10/02 07:47:23;;;;;;;4.77;4.33;;;21.40;99.90;;;;;;5075447;28;20465;-62
2023/10/02 07:49:52;;;;;;;6.00;4.13;;;21.40;99.90;;;;;;5078151;28;20501;-62
2023/10/02 07:52:30;;;;;;;5.20;4.43;;;21.40;99.90;;;;;;5076987;28;20484;-62
2023/10/02 07:55:01;;;;;;;4.50;3.93;;;21.40;99.90;;;;;;5075186;28;20883;-62
2023/10/02 07:57:32;;;;;;;5.60;4.40;;;21.40;99.90;;;;;;5077335;28;20457;-62
2023/10/02 08:00:01;;;;;;;7.33;4.90;;;21.40;99.90;;;;;;5070713;28;20939;-63
2023/10/02 08:02:33;;;;;;;6.83;4.60;;;21.50;99.90;;;;;;5067808;28;20466;-63
2023/10/02 08:05:03;;;;;;;5.03;4.33;;;21.40;99.90;;;;;;5070886;28;20588;-62
2023/10/02 08:07:30;;;;;;;7.30;4.70;;;21.40;99.90;;;;;;5071160;28;20459;-62
2023/10/02 08:09:59;;;;;;;5.73;4.37;;;21.50;99.90;;;;;;5072801;28;20483;-62
2023/10/02 08:12:34;;;;;;;5.30;4.00;;;21.40;99.90;;;;;;5073776;28;20452;-62
2023/10/02 08:15:04;;;;;;;6.13;4.40;;;21.40;99.90;;;;;;5073808;28;20961;-62
2023/10/02 08:20:19;;;;;;;6.00;4.30;;;21.50;99.90;;;;;;5073812;28;20545;-62
2023/10/02 08:22:46;;;;;;;8.40;5.40;;;21.40;99.90;;;;;;5074553;28;20458;-62
2023/10/02 08:25:16;;;;;;;8.27;5.70;;;21.40;99.90;;;;;;5070637;28;20448;-62
2023/10/02 08:27:43;;;;;;;4.83;4.10;;;21.40;99.90;;;;;;5072279;28;20490;-62
2023/10/02 08:30:27;;;;;;;8.37;5.90;;;21.50;99.90;;;;;;5071694;28;20992;-63
2023/10/02 08:32:54;;;;;;;7.73;5.50;;;21.40;99.90;;;;;;5073559;28;20547;-62
2023/10/02 08:35:21;;;;;;;6.77;5.40;;;21.50;99.90;;;;;;5073260;28;20690;-62
2023/10/02 08:37:54;;;;;;;7.67;5.40;;;21.50;99.90;;;;;;5076558;28;20464;-62
2023/10/02 08:40:22;;;;;;;9.70;5.53;;;21.50;99.90;;;;;;5075598;28;20451;-62
2023/10/02 08:42:52;;;;;;;7.00;4.90;;;21.40;99.90;;;;;;5074922;28;20749;-62
2023/10/02 08:45:20;;;;;;;8.60;5.50;;;21.40;99.90;;;;;;5073397;28;20467;-62
2023/10/02 08:47:47;;;;;;;8.03;5.37;;;21.50;99.90;;;;;;5070704;28;20461;-62
2023/10/02 08:50:15;;;;;;;7.27;6.20;;;21.50;99.90;;;;;;5072182;28;20614;-63
2023/10/02 08:52:47;;;;;;;7.93;5.90;;;21.40;99.90;;;;;;5073610;28;20452;-61
2023/10/02 08:55:35;;;;;;;9.10;6.20;;;21.50;99.90;;;;;;5075121;28;20460;-62
2023/10/02 08:58:15;;;;;;;10.50;6.00;;;21.50;99.90;;;;;;5075134;28;20921;-62
2023/10/02 09:01:17;;;;;;;9.70;6.13;;;21.50;99.90;;;;;;5076555;28;21116;-63
2023/10/02 09:04:21;;;;;;;8.30;5.47;;;21.50;99.90;;;;;;5075300;28;20757;-63
2023/10/02 09:06:44;;;;;;;8.97;6.80;;;21.60;99.90;;;;;;5074292;28;20545;-62
2023/10/02 09:09:26;;;;;;;8.73;6.17;;;21.40;99.90;;;;;;5075143;28;20598;-62
2023/10/02 09:11:57;;;;;;;8.90;6.13;;;21.50;99.90;;;;;;5072951;28;20459;-62
2023/10/02 09:14:39;;;;;;;8.70;6.50;;;21.50;99.90;;;;;;5076385;28;20683;-62
2023/10/02 09:17:16;;;;;;;9.30;5.87;;;21.50;99.90;;;;;;5074257;28;20457;-62
2023/10/02 09:19:48;;;;;;;9.10;6.30;;;21.50;99.90;;;;;;5075399;28;20621;-62
2023/10/02 09:22:16;;;;;;;7.20;5.13;;;21.60;99.90;;;;;;5073859;28;20455;-61
2023/10/02 09:24:55;;;;;;;10.30;6.20;;;21.50;99.90;;;;;;5075733;28;20486;-62
2023/10/02 09:27:25;;;;;;;8.07;5.33;;;21.50;99.90;;;;;;5071917;28;21006;-62
2023/10/02 09:30:15;;;;;;;6.97;5.23;;;21.50;99.90;;;;;;5074067;28;20574;-62
2023/10/02 09:32:49;;;;;;;7.90;5.70;;;21.50;99.90;;;;;;5075646;28;20565;-61
2023/10/02 09:35:23;;;;;;;7.77;5.50;;;21.60;99.90;;;;;;5073460;28;21307;-62
2023/10/02 09:37:56;;;;;;;11.70;6.00;;;21.50;99.90;;;;;;5073608;28;20456;-62
2023/10/02 09:40:28;;;;;;;9.57;6.90;;;21.50;99.90;;;;;;5073724;28;20793;-61
2023/10/02 09:43:05;;;;;;;8.30;7.03;;;21.50;99.90;;;;;;5076778;28;20477;-62
2023/10/02 09:45:35;;;;;;;9.73;6.90;;;21.60;99.90;;;;;;5076102;28;20197;-61
2023/10/02 09:48:06;;;;;;;12.90;8.23;;;21.50;99.90;;;;;;5072389;28;20467;-61
2023/10/02 09:50:41;;;;;;;11.73;7.80;;;21.50;99.90;;;;;;5077506;28;20892;-61
2023/10/02 09:53:10;;;;;;;12.03;7.67;;;21.60;99.90;;;;;;5072118;28;21240;-61
2023/10/02 09:55:53;;;;;;;16.17;8.47;;;21.50;99.90;;;;;;5072914;28;20475;-61
2023/10/02 09:58:29;;;;;;;10.87;7.03;;;21.50;99.90;;;;;;5069406;28;20458;-67
2023/10/02 10:01:22;;;;;;;10.40;6.97;;;21.50;99.90;;;;;;5068261;28;20464;-65
2023/10/02 10:03:51;;;;;;;13.37;8.87;;;21.60;99.90;;;;;;5071971;28;20463;-64
2023/10/02 10:06:19;;;;;;;11.13;7.93;;;21.70;99.90;;;;;;5064245;28;20463;-61
2023/10/02 10:09:25;;;;;;;13.93;7.73;;;21.60;99.90;;;;;;5073129;28;21030;-65
2023/10/02 10:14:37;;;;;;;10.87;8.03;;;21.60;99.90;;;;;;5064281;28;20444;-62
2023/10/02 10:17:12;;;;;;;12.10;8.40;;;21.60;99.90;;;;;;5066144;28;20530;-63
2023/10/02 10:19:41;;;;;;;13.47;8.13;;;21.60;99.90;;;;;;5064302;28;20942;-63
2023/10/02 10:22:34;;;;;;;16.70;9.67;;;21.70;99.90;;;;;;5072549;28;20624;-63
2023/10/02 10:27:58;;;;;;;17.40;9.93;;;21.70;99.90;;;;;;5068883;28;20862;-61
2023/10/02 10:30:46;;;;;;;15.27;9.70;;;21.60;99.90;;;;;;5073180;28;20479;-64
2023/10/02 10:33:35;;;;;;;13.43;8.23;;;21.70;99.90;;;;;;5072242;28;20495;-60
2023/10/02 10:36:09;;;;;;;11.23;8.83;;;21.80;99.90;;;;;;5069652;28;20963;-64
2023/10/02 10:38:36;;;;;;;16.83;9.97;;;21.80;99.90;;;;;;5072451;28;20504;-64
2023/10/02 10:41:06;;;;;;;16.20;9.23;;;21.80;99.90;;;;;;5072816;28;20477;-62
2023/10/02 10:43:43;;;;;;;15.40;8.60;;;21.80;99.90;;;;;;5072708;28;20928;-65
2023/10/02 10:46:14;;;;;;;13.60;8.70;;;21.80;99.90;;;;;;5072877;28;20468;-62
2023/10/02 10:48:41;;;;;;;12.07;8.57;;;22.00;99.90;;;;;;5071968;28;20958;-62
2023/10/02 10:51:20;;;;;;;13.10;9.40;;;21.90;99.90;;;;;;5072016;28;20544;-64
2023/10/02 10:53:47;;;;;;;13.40;9.30;;;21.90;99.90;;;;;;5071639;28;20495;-65
2023/10/02 10:56:17;;;;;;;14.43;9.73;;;22.00;99.90;;;;;;5069989;28;20479;-62
2023/10/02 10:58:45;;;;;;;13.90;8.17;;;21.90;99.90;;;;;;5072862;28;21320;-66
2023/10/02 11:01:16;;;;;;;15.67;9.63;;;22.00;99.90;;;;;;5072755;28;22144;-62
2023/10/02 11:03:43;;;;;;;12.00;8.20;;;22.00;99.90;;;;;;5073534;28;20443;-64
2023/10/02 11:06:11;;;;;;;14.80;9.53;;;22.00;99.90;;;;;;5071132;28;20739;-64
2023/10/02 11:08:39;;;;;;;16.63;9.73;;;22.00;99.90;;;;;;5072142;28;20460;-64
2023/10/02 11:11:18;;;;;;;14.77;10.03;;;22.10;99.90;;;;;;5074659;28;20482;-65
2023/10/02 11:13:53;;;;;;;12.87;8.60;;;22.10;99.90;;;;;;5072933;28;20959;-65
2023/10/02 11:16:38;;;;;;;16.37;9.90;;;22.20;99.90;;;;;;5070139;28;20456;-63
2023/10/02 11:19:24;;;;;;;12.70;8.73;;;22.10;99.90;;;;;;5072229;28;20451;-63
2023/10/02 11:22:14;;;;;;;14.70;10.00;;;22.20;99.90;;;;;;5070247;28;20546;-63
2023/10/02 11:24:41;;;;;;;14.77;9.67;;;22.10;99.90;;;;;;5073261;28;20452;-64
2023/10/02 11:27:11;;;;;;;15.20;9.63;;;22.10;99.90;;;;;;5072876;28;20459;-66
2023/10/02 11:29:40;;;;;;;14.97;9.27;;;22.10;99.90;;;;;;5067504;28;20709;-62
2023/10/02 11:32:22;;;;;;;13.30;9.43;;;22.20;99.90;;;;;;5071202;28;21313;-63
2023/10/02 11:34:49;;;;;;;14.23;8.73;;;22.20;99.90;;;;;;5073850;28;20450;-61
2023/10/02 11:37:17;;;;;;;16.80;9.60;;;22.20;99.90;;;;;;5071591;28;21029;-60
2023/10/02 11:39:44;;;;;;;12.80;9.17;;;22.30;99.90;;;;;;5070002;28;20490;-62
2023/10/02 11:42:11;;;;;;;12.63;8.63;;;22.30;99.90;;;;;;5071750;28;20837;-62
2023/10/02 11:44:39;;;;;;;14.77;9.23;;;22.20;99.90;;;;;;5073606;28;20467;-59
2023/10/02 11:47:12;;;;;;;13.73;9.50;;;22.20;99.90;;;;;;5072641;28;20455;-63
2023/10/02 11:49:39;;;;;;;13.50;8.10;;;22.30;99.90;;;;;;5073206;28;20483;-62
2023/10/02 11:52:06;;;;;;;16.60;10.87;;;22.20;99.90;;;;;;5073299;28;20461;-64
2023/10/02 11:54:36;;;;;;;12.37;8.40;;;22.40;99.90;;;;;;5072087;28;20463;-66
2023/10/02 11:57:08;;;;;;;14.53;8.87;;;22.30;99.90;;;;;;5069005;28;21333;-66
2023/10/02 11:59:36;;;;;;;15.07;9.83;;;22.40;99.90;;;;;;5069910;28;20443;-64
2023/10/02 12:02:03;;;;;;;18.60;10.20;;;22.30;99.90;;;;;;5070324;28;21162;-67
2023/10/02 12:04:33;;;;;;;12.43;8.67;;;22.40;99.90;;;;;;5074340;28;20464;-66
2023/10/02 12:07:00;;;;;;;13.70;8.77;;;22.40;99.90;;;;;;5078119;28;21034;-63
2023/10/02 12:09:27;;;;;;;15.23;8.47;;;22.50;99.90;;;;;;5076167;28;20485;-64
2023/10/02 12:11:55;;;;;;;14.50;9.30;;;22.30;99.90;;;;;;5070802;28;20636;-63
2023/10/02 12:14:22;;;;;;;14.20;9.90;;;22.60;99.90;;;;;;5073929;28;20571;-61
2023/10/02 12:16:49;;;;;;;14.40;9.90;;;22.50;99.90;;;;;;5078790;28;20475;-60
2023/10/02 12:19:17;;;;;;;14.90;9.60;;;;;;;;;;5078119;28;20875;-55
2023/10/02 12:21:45;;;;;;;15.70;9.30;;;22.40;99.90;;;;;;5077426;28;20451;-57
2023/10/02 12:24:13;;;;;;;20.73;10.80;;;22.50;99.90;;;;;;5078275;28;20448;-58
2023/10/02 12:26:40;;;;;;;19.70;10.60;;;22.50;99.90;;;;;;5078139;28;20506;-55
2023/10/02 12:29:07;;;;;;;15.97;10.17;;;22.60;99.90;;;;;;5078527;28;20855;-56
2023/10/02 12:31:36;;;;;;;12.60;8.63;;;22.50;99.90;;;;;;5064861;28;20491;-55
2023/10/02 12:34:05;;;;;;;14.63;10.40;;;22.70;99.90;;;;;;5076935;28;20464;-65
2023/10/02 12:36:32;;;;;;;16.20;10.47;;;22.70;99.90;;;;;;5079517;28;20464;-60
2023/10/02 12:39:00;;;;;;;16.03;9.60;;;22.50;99.90;;;;;;5076632;28;20460;-62
2023/10/02 12:41:29;;;;;;;14.90;9.27;;;22.60;99.90;;;;;;5076409;28;20452;-61
2023/10/02 12:43:56;;;;;;;14.50;8.83;;;22.70;99.90;;;;;;5077307;28;20460;-63
2023/10/02 12:46:25;;;;;;;17.03;10.90;;;;;;;;;;5076009;28;20578;-61
2023/10/02 12:48:52;;;;;;;17.90;10.73;;;22.50;99.90;;;;;;5076255;28;21173;-59
2023/10/02 12:51:19;;;;;;;18.17;9.93;;;23.40;99.90;;;;;;5075360;28;20819;-63
2023/10/02 12:53:46;;;;;;;16.97;9.73;;;22.70;99.90;;;;;;5077957;28;21208;-60
2023/10/02 12:56:20;;;;;;;17.23;9.60;;;22.60;99.90;;;;;;5073203;28;20455;-59
2023/10/02 12:58:49;;;;;;;14.70;9.93;;;22.80;99.90;;;;;;5076174;28;20456;-60
2023/10/02 13:01:16;;;;;;;19.10;10.50;;;22.70;99.90;;;;;;5076322;28;20517;-59
2023/10/02 13:03:43;;;;;;;18.77;9.50;;;22.70;99.90;;;;;;5074207;28;20952;-57
2023/10/02 13:06:12;;;;;;;15.10;9.57;;;22.70;99.90;;;;;;5074278;28;20454;-60
2023/10/02 13:08:42;;;;;;;16.40;10.90;;;22.70;99.90;;;;;;5075632;28;20456;-58
2023/10/02 13:11:13;;;;;;;18.70;10.43;;;23.00;99.90;;;;;;5074428;28;20495;-59
2023/10/02 13:13:44;;;;;;;17.77;10.83;;;22.80;99.90;;;;;;5076514;28;20474;-60
2023/10/02 13:16:11;;;;;;;15.80;9.53;;;22.80;99.90;;;;;;5070738;28;20455;-64
2023/10/02 13:18:39;;;;;;;16.10;10.43;;;22.80;99.90;;;;;;5075173;28;20467;-63
2023/10/02 13:21:08;;;;;;;17.57;9.20;;;22.80;99.90;;;;;;5073925;28;21372;-59
2023/10/02 13:23:36;;;;;;;14.10;9.63;;;22.80;99.90;;;;;;5072558;28;20458;-63
2023/10/02 13:26:05;;;;;;;15.67;9.70;;;22.80;99.90;;;;;;5074632;28;20460;-60
2023/10/02 13:28:34;;;;;;;15.50;10.20;;;22.70;99.90;;;;;;5076953;28;20550;-56
2023/10/02 13:31:09;;;;;;;12.67;8.63;;;22.90;99.90;;;;;;5070661;28;20479;-59